Terminal Aerodrome Forecast
Issued by NWS Shreveport, LA

Home | Current Version | Previous Version | Text Only | Print | Product List | Glossary On
Versions: 1 2 3 4 5 6 7 8 9 10 11 12 13 14
682
FTUS44 KSHV 252322
TAFTYR
TAF
KTYR 252322Z 2600/2624 33012KT P6SM VCSH SCT030 OVC050
      TEMPO 2600/2603 5SM -SHRA BR OVC030
     FM260300 32008KT P6SM SCT030 BKN050
     FM260600 30006KT P6SM SCT030
     FM261500 29010KT P6SM SCT015
     FM261800 32008KT P6SM SCT040=

USA.gov is the U.S. government's official web portal to all federal, state and local government web resources and services.